Flight Track Log - Related Links

Times and Time Zones

All times are in EDT time to prevent confusion due to time zone crossing. See the ASQ5685 flight status page for this flight to view local times or setup timezone preferences in your user account.

Time Position Orientation Groundspeed Altitude Reporting Facility
EDT Latitude Longitude Course Direction KTS MPH feet Rate Location/Type
Mon 09:57:53 AM 33.6244 -84.4978 53° Northeast 398 458 2,900  Level Atlanta Center
Mon 09:58:53 AM 33.5928 -84.5675 241° Southwest 298 343 4,900 2,250 Climbing Atlanta Center
Mon 09:59:53 AM 33.5258 -84.5844 192° South 234 269 7,400 2,000 Climbing Atlanta Center
Mon 10:00:53 AM 33.4633 -84.5592 161° South 286 329 8,900 1,600 Climbing Atlanta Center
Mon 10:01:53 AM 33.4556 -84.4472 95° East 301 346 10,600 1,350 Climbing Atlanta Center
Mon 10:02:00 AM 33.9235 -83.7058 53° Northeast  Level FlightAware Approximate
Mon 10:02:53 AM 33.4558 -84.3250 90° East 342 394 11,600  Level Atlanta Center
Mon 10:03:00 AM 33.9908 -83.5978 53° Northeast  Level FlightAware Approximate
Mon 10:03:53 AM 33.5228 -84.2331 49° Northeast 334 384 13,200  Level Atlanta Center
Mon 10:04:53 AM 33.6189 -84.1711 28° Northeast 364 419 15,000 1,800 Climbing Atlanta Center
Mon 10:05:53 AM 33.7150 -84.1089 28° Northeast 382 440 16,800 1,650 Climbing Atlanta Center
Mon 10:06:53 AM 33.7797 -84.0039 53° Northeast 387 445 18,300 1,250 Climbing Atlanta Center
Mon 10:07:53 AM 33.8381 -83.8889 59° Northeast 387 445 19,300 1,000 Climbing Atlanta Center
Mon 10:08:53 AM 33.8983 -83.7711 58° Northeast 407 468 20,300 1,000 Climbing Atlanta Center
Mon 10:09:53 AM 33.9628 -83.6581 55° Northeast 407 468 21,300 1,000 Climbing Atlanta Center
Mon 10:10:53 AM 34.0333 -83.5450 53° Northeast 417 480 22,300 1,050 Climbing Atlanta Center
Mon 10:11:53 AM 34.1100 -83.4242 53° Northeast 417 480 23,400 950 Climbing Atlanta Center
Mon 10:12:53 AM 34.1803 -83.3106 53° Northeast 417 480 24,200 750 Climbing Atlanta Center
Mon 10:13:53 AM 34.2525 -83.1969 52° Northeast 417 480 24,900 400 Climbing Atlanta Center
Mon 10:14:53 AM 34.3228 -83.0806 54° Northeast 422 486 25,000 50 Climbing Atlanta Center
Mon 10:15:53 AM 34.3928 -82.9664 53° Northeast 422 486 25,000  Level Atlanta Center
Mon 10:16:53 AM 34.4669 -82.8547 51° Northeast 428 493 25,000 300 Level Atlanta Center
Mon 10:17:53 AM 34.5367 -82.7403 53° Northeast 423 487 25,600 550 Climbing Atlanta Center
Mon 10:18:53 AM 34.6083 -82.6231 53° Northeast 417 480 26,100 450 Climbing Atlanta Center
Mon 10:19:53 AM 34.6739 -82.5208 52° Northeast 422 486 26,500 450 Climbing Atlanta Center
Mon 10:20:53 AM 34.7475 -82.4031 53° Northeast 427 491 27,000 500 Climbing Atlanta Center
Mon 10:21:53 AM 34.8208 -82.2778 54° Northeast 433 498 27,500 700 Climbing Atlanta Center
Mon 10:22:53 AM 34.8922 -82.1622 53° Northeast 439 505 28,400 750 Climbing Atlanta Center
Mon 10:23:53 AM 34.9614 -82.0417 55° Northeast 434 499 29,000 300 Climbing Atlanta Center
Mon 10:24:53 AM 35.0239 -81.9236 57° Northeast 429 494 29,000  Level Atlanta Center
Mon 10:25:53 AM 35.0908 -81.8050 55° Northeast 423 487 29,000  Level Atlanta Center
Mon 10:26:53 AM 35.1492 -81.6892 58° Northeast 413 475 29,000  Level Atlanta Center
Mon 10:27:53 AM 35.2094 -81.5756 57° Northeast 408 470 29,000  Level Atlanta Center
Mon 10:28:53 AM 35.2697 -81.4592 58° Northeast 402 463 29,000  Level Atlanta Center
Mon 10:29:53 AM 35.3278 -81.3506 57° Northeast 391 450 29,000  Level Atlanta Center
Mon 10:30:53 AM 35.3858 -81.2367 58° Northeast 391 450 29,000  Level Atlanta Center
Mon 10:31:53 AM 35.4536 -81.1067 57° Northeast 400 460 29,000  Level Atlanta Center
Mon 10:32:53 AM 35.5158 -80.9947 56° Northeast 400 460 29,000  Level Atlanta Center
Mon 10:33:53 AM 35.5756 -80.8828 57° Northeast 395 455 29,000  Level Atlanta Center
Mon 10:34:53 AM 35.6350 -80.7681 57° Northeast 395 455 29,000  Level Atlanta Center
Mon 10:35:53 AM 35.6944 -80.6533 57° Northeast 395 455 29,000  Level Atlanta Center
Mon 10:36:53 AM 35.7539 -80.5408 57° Northeast 395 455 29,000  Level Atlanta Center
Mon 10:38:41 AM 35.8617 -80.3336 57° Northeast 397 457 29,000  Level Washington Center
Mon 10:39:43 AM 35.9206 -80.2164 58° Northeast 397 457 29,000  Level Washington Center
Mon 10:40:41 AM 35.9792 -80.1019 58° Northeast 397 457 29,000  Level Washington Center
Mon 10:41:43 AM 36.0350 -80.0022 55° Northeast 397 457 29,000  Level Washington Center
Mon 10:42:43 AM 36.0978 -79.8875 56° Northeast 397 457 29,000  Level Washington Center
Mon 10:43:41 AM 36.1622 -79.7753 55° Northeast 397 457 29,000  Level Washington Center
Mon 10:44:43 AM 36.2314 -79.6478 56° Northeast 403 464 29,000  Level Washington Center
Mon 10:45:43 AM 36.2889 -79.5450 55° Northeast 403 464 29,000  Level Washington Center
Mon 10:46:41 AM 36.3597 -79.4272 53° Northeast 403 464 29,000  Level Washington Center
Mon 10:47:42 AM 36.4131 -79.3217 58° Northeast 398 458 29,000  Level Washington Center
Mon 10:48:43 AM 36.4792 -79.2083 54° Northeast 398 458 29,000  Level Washington Center
Mon 10:49:44 AM 36.5517 -79.0850 54° Northeast 403 464 29,000 -814 Level Washington Center
Mon 10:50:41 AM 36.6156 -78.9664 56° Northeast 403 464 27,400 -1,627 Descending Washington Center
Mon 10:51:42 AM 36.6772 -78.8472 57° Northeast 403 464 25,800 -1,180 Descending Washington Center
Mon 10:52:43 AM 36.7319 -78.7486 55° Northeast 397 457 25,000 -397 Descending Washington Center
Mon 10:53:43 AM 36.7933 -78.6422 54° Northeast 387 445 25,000  Level Washington Center
Mon 10:54:41 AM 36.8647 -78.5411 49° Northeast 387 445 25,000  Level Washington Center
Mon 10:55:42 AM 36.9608 -78.4408 40° Northeast 396 456 25,000  Level Washington Center
Mon 10:56:43 AM 37.0508 -78.3478 40° Northeast 409 471 25,000  Level Washington Center
Mon 10:57:43 AM 37.1528 -78.2681 32° Northeast 422 486 25,000  Level Washington Center
Mon 10:58:41 AM 37.2589 -78.1831 33° Northeast 433 498 25,000 -102 Level Washington Center
Mon 10:59:41 AM 37.3564 -78.1053 32° Northeast 433 498 24,800 -750 Descending Washington Center
Mon 11:00:41 AM 37.4603 -78.0250 32° Northeast 428 493 23,500 -1,289 Descending Washington Center
Mon 11:01:42 AM 37.5578 -77.9469 32° Northeast 422 486 22,200 -738 Descending Washington Center
Mon 11:02:43 AM 37.6575 -77.8661 33° Northeast 422 486 22,000 -1,160 Descending Washington Center
Mon 11:03:41 AM 37.7611 -77.7878 31° Northeast 422 486 19,900 -2,186 Descending Washington Center
Mon 11:04:41 AM 37.8542 -77.7089 34° Northeast 422 486 17,700 -2,182 Descending Washington Center
Mon 11:05:42 AM 37.9472 -77.6353 32° Northeast 412 474 15,500 -2,033 Descending Washington Center
Mon 11:06:42 AM 38.0339 -77.5689 31° Northeast 385 443 13,600 -1,884 Descending Washington Center
Mon 11:07:43 AM 38.1142 -77.5025 33° Northeast 355 409 11,700 -1,765 Descending Washington Center
Mon 11:08:41 AM 38.1881 -77.4436 32° Northeast 329 379 10,100 -958 Descending Washington Center
Mon 11:09:42 AM 38.2639 -77.4031 23° Northeast 305 351 9,800 -541 Descending Washington Center
Mon 11:10:43 AM 38.3453 -77.3944 North 293 337 9,000 -645 Descending Washington Center
Mon 11:11:43 AM 38.4247 -77.3858 North 287 330 8,500 -1,119 Descending Washington Center
Mon 11:12:41 AM 38.5019 -77.3772 North 282 325 6,800 -1,664 Descending Washington Center
Mon 11:13:42 AM 38.5772 -77.3683 North 276 318 5,200 -934 Descending Washington Center
Mon 11:14:43 AM 38.6544 -77.3622 North 276 318 4,900 -522 Descending Washington Center
Mon 11:15:14 AM 38.7000 -77.3667 356° North 272 313 4,400 -635 Descending Potomac TRACON
Mon 11:16:08 AM 38.7667 -77.3500 11° North 274 315 4,000 -200 Descending Potomac TRACON
Mon 11:17:14 AM 38.8500 -77.3500 360° North 266 306 4,000  Level Potomac TRACON
Mon 11:18:14 AM 38.9167 -77.3500 360° North 264 304 4,000 -99 Level Potomac TRACON
Mon 11:19:15 AM 39.0000 -77.3500 360° North 271 312 3,800 -574 Descending Potomac TRACON
Mon 11:20:09 AM 39.0667 -77.3500 360° North 258 297 2,900 -1,000 Descending Potomac TRACON
Mon 11:21:09 AM 39.1167 -77.3833 333° Northwest 250 288 1,900 -446 Descending Potomac TRACON
Mon 11:22:10 AM 39.0833 -77.4333 229° Southwest 218 251 2,000  Climbing Potomac TRACON
Mon 11:23:10 AM 39.0333 -77.4333 180° South 171 197 1,900 -474 Descending Potomac TRACON
Mon 11:24:04 AM 39.0000 -77.4333 180° South 145 167 1,100 -889 Descending Potomac TRACON
Mon 11:26:00 AM 38.9474 -77.4599 195° South  Level Estimated
Mon 11:33:00 AM 38.9474 -77.4599 195° South  Level Estimated
Mon 11:34:00 AM 38.9474 -77.4599 195° South  Level Estimated

Login

Don't have an account? Register now (free) for customized features, flight alerts, and more!